sensor_id;sensor_type;location;lat;lon;timestamp;pressure;altitude;pressure_sealevel;temperature;humidity
7050;BME280;22263;52.260;10.548;2023-09-30T00:00:17;101183.34;;;16.30;100.00
7050;BME280;22263;52.260;10.548;2023-09-30T00:02:47;101184.13;;;16.23;100.00
7050;BME280;22263;52.260;10.548;2023-09-30T00:05:19;101194.47;;;16.26;100.00
7050;BME280;22263;52.260;10.548;2023-09-30T00:07:49;101203.69;;;16.16;100.00
7050;BME280;22263;52.260;10.548;2023-09-30T00:10:18;101210.84;;;16.06;100.00
7050;BME280;22263;52.260;10.548;2023-09-30T00:12:49;101206.88;;;16.00;100.00
7050;BME280;22263;52.260;10.548;2023-09-30T00:15:18;101211.25;;;15.87;100.00
7050;BME280;22263;52.260;10.548;2023-09-30T00:17:48;101214.03;;;15.98;100.00
7050;BME280;22263;52.260;10.548;2023-09-30T00:20:20;101219.59;;;15.77;100.00
7050;BME280;22263;52.260;10.548;2023-09-30T00:22:50;101222.78;;;15.86;100.00
7050;BME280;22263;52.260;10.548;2023-09-30T00:25:20;101229.94;;;15.83;100.00
7050;BME280;22263;52.260;10.548;2023-09-30T00:27:50;101232.38;;;15.92;100.00
7050;BME280;22263;52.260;10.548;2023-09-30T00:30:20;101235.94;;;15.85;100.00
7050;BME280;22263;52.260;10.548;2023-09-30T00:32:50;101240.75;;;16.13;100.00
7050;BME280;22263;52.260;10.548;2023-09-30T00:35:22;101245.09;;;15.89;100.00
7050;BME280;22263;52.260;10.548;2023-09-30T00:37:52;101237.50;;;15.83;100.00
7050;BME280;22263;52.260;10.548;2023-09-30T00:40:22;101244.25;;;15.64;100.00
7050;BME280;22263;52.260;10.548;2023-09-30T00:42:51;101253.81;;;15.63;100.00
7050;BME280;22263;52.260;10.548;2023-09-30T00:45:22;101268.53;;;15.60;100.00
7050;BME280;22263;52.260;10.548;2023-09-30T00:47:52;101250.63;;;15.64;100.00
7050;BME280;22263;52.260;10.548;2023-09-30T00:50:24;101266.16;;;15.69;100.00
7050;BME280;22263;52.260;10.548;2023-09-30T00:52:55;101264.97;;;15.63;100.00
7050;BME280;22263;52.260;10.548;2023-09-30T00:55:25;101279.63;;;15.46;100.00
7050;BME280;22263;52.260;10.548;2023-09-30T00:57:55;101275.72;;;15.64;100.00
7050;BME280;22263;52.260;10.548;2023-09-30T01:00:25;101271.25;;;15.46;100.00
7050;BME280;22263;52.260;10.548;2023-09-30T01:02:55;101258.84;;;15.29;100.00
7050;BME280;22263;52.260;10.548;2023-09-30T01:05:29;101270.81;;;15.30;100.00
7050;BME280;22263;52.260;10.548;2023-09-30T01:08:01;101271.50;;;15.09;100.00
7050;BME280;22263;52.260;10.548;2023-09-30T01:10:31;101276.31;;;15.19;100.00
7050;BME280;22263;52.260;10.548;2023-09-30T01:13:00;101275.53;;;15.25;100.00
7050;BME280;22263;52.260;10.548;2023-09-30T01:15:30;101286.28;;;15.23;100.00
7050;BME280;22263;52.260;10.548;2023-09-30T01:18:00;101292.50;;;14.96;100.00
7050;BME280;22263;52.260;10.548;2023-09-30T01:20:32;101296.19;;;15.10;100.00
7050;BME280;22263;52.260;10.548;2023-09-30T01:23:05;101286.22;;;15.13;100.00
7050;BME280;22263;52.260;10.548;2023-09-30T01:25:40;101279.53;;;15.24;100.00
7050;BME280;22263;52.260;10.548;2023-09-30T01:28:11;101277.56;;;15.25;100.00
7050;BME280;22263;52.260;10.548;2023-09-30T01:30:42;101278.91;;;14.87;100.00
7050;BME280;22263;52.260;10.548;2023-09-30T01:33:12;101284.31;;;15.24;100.00
7050;BME280;22263;52.260;10.548;2023-09-30T01:35:44;101286.84;;;14.81;100.00
7050;BME280;22263;52.260;10.548;2023-09-30T01:38:16;101284.97;;;14.96;100.00
7050;BME280;22263;52.260;10.548;2023-09-30T01:40:47;101293.84;;;15.19;100.00
7050;BME280;22263;52.260;10.548;2023-09-30T01:43:17;101296.19;;;15.14;100.00
7050;BME280;22263;52.260;10.548;2023-09-30T01:45:48;101292.53;;;14.99;100.00
7050;BME280;22263;52.260;10.548;2023-09-30T01:48:18;101288.88;;;14.88;100.00
7050;BME280;22263;52.260;10.548;2023-09-30T01:50:48;101300.16;;;15.09;100.00
7050;BME280;22263;52.260;10.548;2023-09-30T01:53:20;101308.44;;;14.95;100.00
7050;BME280;22263;52.260;10.548;2023-09-30T01:55:51;101313.56;;;14.93;100.00
7050;BME280;22263;52.260;10.548;2023-09-30T01:58:21;101310.28;;;14.77;100.00
7050;BME280;22263;52.260;10.548;2023-09-30T02:00:51;101307.47;;;14.73;100.00
7050;BME280;22263;52.260;10.548;2023-09-30T02:03:22;101317.41;;;14.71;100.00
7050;BME280;22263;52.260;10.548;2023-09-30T02:05:52;101326.13;;;14.66;100.00
7050;BME280;22263;52.260;10.548;2023-09-30T02:08:25;101323.00;;;14.78;100.00
7050;BME280;22263;52.260;10.548;2023-09-30T02:10:55;101329.59;;;14.56;100.00
7050;BME280;22263;52.260;10.548;2023-09-30T02:13:24;101339.97;;;14.59;100.00
7050;BME280;22263;52.260;10.548;2023-09-30T02:15:54;101339.50;;;14.50;100.00
7050;BME280;22263;52.260;10.548;2023-09-30T02:18:24;101334.09;;;14.71;100.00
7050;BME280;22263;52.260;10.548;2023-09-30T02:20:54;101319.38;;;14.67;100.00
7050;BME280;22263;52.260;10.548;2023-09-30T02:23:29;101316.13;;;14.58;100.00
7050;BME280;22263;52.260;10.548;2023-09-30T02:25:59;101320.72;;;14.39;100.00
7050;BME280;22263;52.260;10.548;2023-09-30T02:28:29;101328.66;;;14.37;100.00
7050;BME280;22263;52.260;10.548;2023-09-30T02:31:01;101329.59;;;14.52;100.00
7050;BME280;22263;52.260;10.548;2023-09-30T02:33:31;101330.03;;;14.58;100.00
7050;BME280;22263;52.260;10.548;2023-09-30T02:36:02;101336.91;;;14.71;100.00
7050;BME280;22263;52.260;10.548;2023-09-30T02:38:36;101332.13;;;14.71;100.00
7050;BME280;22263;52.260;10.548;2023-09-30T02:41:06;101338.78;;;14.60;100.00
7050;BME280;22263;52.260;10.548;2023-09-30T02:43:35;101325.66;;;14.57;100.00
7050;BME280;22263;52.260;10.548;2023-09-30T02:46:05;101323.56;;;14.47;100.00
7050;BME280;22263;52.260;10.548;2023-09-30T02:48:35;101331.13;;;14.46;100.00
7050;BME280;22263;52.260;10.548;2023-09-30T02:51:09;101321.59;;;14.47;100.00
7050;BME280;22263;52.260;10.548;2023-09-30T02:53:42;101321.72;;;14.65;100.00
7050;BME280;22263;52.260;10.548;2023-09-30T02:56:11;101311.84;;;14.74;100.00
7050;BME280;22263;52.260;10.548;2023-09-30T02:58:41;101326.50;;;14.68;100.00
7050;BME280;22263;52.260;10.548;2023-09-30T03:01:14;101326.47;;;14.61;100.00
7050;BME280;22263;52.260;10.548;2023-09-30T03:03:45;101324.03;;;14.56;100.00
7050;BME280;22263;52.260;10.548;2023-09-30T03:06:14;101329.38;;;14.78;100.00
7050;BME280;22263;52.260;10.548;2023-09-30T03:08:48;101337.88;;;14.49;100.00
7050;BME280;22263;52.260;10.548;2023-09-30T03:11:18;101341.09;;;14.51;100.00
7050;BME280;22263;52.260;10.548;2023-09-30T03:13:50;101333.75;;;14.35;100.00
7050;BME280;22263;52.260;10.548;2023-09-30T03:16:22;101341.47;;;14.49;100.00
7050;BME280;22263;52.260;10.548;2023-09-30T03:18:52;101345.75;;;14.39;100.00
7050;BME280;22263;52.260;10.548;2023-09-30T03:21:23;101338.44;;;14.24;100.00
7050;BME280;22263;52.260;10.548;2023-09-30T03:23:55;101346.56;;;14.03;100.00
7050;BME280;22263;52.260;10.548;2023-09-30T03:26:28;101338.22;;;14.03;100.00
7050;BME280;22263;52.260;10.548;2023-09-30T03:28:58;101338.38;;;14.17;100.00
7050;BME280;22263;52.260;10.548;2023-09-30T03:31:27;101344.41;;;14.26;100.00
7050;BME280;22263;52.260;10.548;2023-09-30T03:33:57;101347.28;;;14.33;100.00
7050;BME280;22263;52.260;10.548;2023-09-30T03:36:27;101345.88;;;14.13;100.00
7050;BME280;22263;52.260;10.548;2023-09-30T03:38:59;101336.50;;;14.28;100.00
7050;BME280;22263;52.260;10.548;2023-09-30T03:41:33;101336.84;;;14.23;100.00
7050;BME280;22263;52.260;10.548;2023-09-30T03:44:04;101341.00;;;14.03;100.00
7050;BME280;22263;52.260;10.548;2023-09-30T03:46:33;101335.97;;;14.16;100.00
7050;BME280;22263;52.260;10.548;2023-09-30T03:49:03;101335.94;;;14.12;100.00
7050;BME280;22263;52.260;10.548;2023-09-30T03:51:35;101343.22;;;14.24;100.00
7050;BME280;22263;52.260;10.548;2023-09-30T03:54:07;101338.34;;;14.14;100.00
7050;BME280;22263;52.260;10.548;2023-09-30T03:56:38;101335.25;;;14.22;100.00
7050;BME280;22263;52.260;10.548;2023-09-30T03:59:08;101331.50;;;14.08;100.00
7050;BME280;22263;52.260;10.548;2023-09-30T04:01:38;101337.53;;;14.13;100.00
7050;BME280;22263;52.260;10.548;2023-09-30T04:04:09;101335.44;;;14.03;100.00
7050;BME280;22263;52.260;10.548;2023-09-30T04:06:39;101342.16;;;13.98;100.00
7050;BME280;22263;52.260;10.548;2023-09-30T04:09:13;101348.44;;;14.32;100.00
7050;BME280;22263;52.260;10.548;2023-09-30T04:11:43;101347.06;;;14.12;100.00
7050;BME280;22263;52.260;10.548;2023-09-30T04:14:13;101333.41;;;14.37;100.00
7050;BME280;22263;52.260;10.548;2023-09-30T04:16:44;101340.19;;;14.39;100.00
7050;BME280;22263;52.260;10.548;2023-09-30T04:19:13;101336.44;;;14.25;100.00
7050;BME280;22263;52.260;10.548;2023-09-30T04:21:43;101337.84;;;14.42;100.00
7050;BME280;22263;52.260;10.548;2023-09-30T04:24:16;101341.53;;;14.53;100.00
7050;BME280;22263;52.260;10.548;2023-09-30T04:26:47;101338.94;;;14.33;100.00
7050;BME280;22263;52.260;10.548;2023-09-30T04:29:17;101345.41;;;14.45;100.00
7050;BME280;22263;52.260;10.548;2023-09-30T04:31:46;101339.78;;;14.37;100.00
7050;BME280;22263;52.260;10.548;2023-09-30T04:34:16;101354.75;;;14.29;100.00
7050;BME280;22263;52.260;10.548;2023-09-30T04:36:46;101355.38;;;14.49;100.00
7050;BME280;22263;52.260;10.548;2023-09-30T04:39:18;101356.78;;;14.29;100.00
7050;BME280;22263;52.260;10.548;2023-09-30T04:41:48;101357.03;;;14.17;100.00
7050;BME280;22263;52.260;10.548;2023-09-30T04:44:18;101354.88;;;14.36;100.00
7050;BME280;22263;52.260;10.548;2023-09-30T04:46:48;101350.34;;;14.25;100.00
7050;BME280;22263;52.260;10.548;2023-09-30T04:49:18;101365.34;;;14.13;100.00
7050;BME280;22263;52.260;10.548;2023-09-30T04:51:47;101366.88;;;14.07;100.00
7050;BME280;22263;52.260;10.548;2023-09-30T04:54:20;101366.06;;;14.07;100.00
7050;BME280;22263;52.260;10.548;2023-09-30T04:56:50;101366.91;;;14.11;100.00
7050;BME280;22263;52.260;10.548;2023-09-30T04:59:20;101380.97;;;13.91;100.00
7050;BME280;22263;52.260;10.548;2023-09-30T05:01:52;101387.50;;;14.06;100.00
7050;BME280;22263;52.260;10.548;2023-09-30T05:04:21;101387.16;;;14.11;100.00
7050;BME280;22263;52.260;10.548;2023-09-30T05:06:52;101389.06;;;14.00;100.00
7050;BME280;22263;52.260;10.548;2023-09-30T05:09:25;101389.00;;;13.96;100.00
7050;BME280;22263;52.260;10.548;2023-09-30T05:11:56;101391.41;;;13.98;100.00
7050;BME280;22263;52.260;10.548;2023-09-30T05:14:26;101391.84;;;14.00;100.00
7050;BME280;22263;52.260;10.548;2023-09-30T05:16:56;101398.56;;;13.99;100.00
7050;BME280;22263;52.260;10.548;2023-09-30T05:19:26;101399.72;;;13.94;100.00
7050;BME280;22263;52.260;10.548;2023-09-30T05:21:55;101400.88;;;13.93;100.00
7050;BME280;22263;52.260;10.548;2023-09-30T05:24:30;101403.47;;;14.09;100.00
7050;BME280;22263;52.260;10.548;2023-09-30T05:27:02;101396.75;;;14.14;100.00
7050;BME280;22263;52.260;10.548;2023-09-30T05:29:31;101402.72;;;14.16;100.00
7050;BME280;22263;52.260;10.548;2023-09-30T05:32:01;101393.63;;;14.19;100.00
7050;BME280;22263;52.260;10.548;2023-09-30T05:34:31;101402.25;;;14.10;100.00
7050;BME280;22263;52.260;10.548;2023-09-30T05:37:01;101412.69;;;14.20;100.00
7050;BME280;22263;52.260;10.548;2023-09-30T05:39:33;101408.56;;;14.37;100.00
7050;BME280;22263;52.260;10.548;2023-09-30T05:42:04;101409.13;;;14.20;100.00
7050;BME280;22263;52.260;10.548;2023-09-30T05:44:34;101412.19;;;14.08;100.00
7050;BME280;22263;52.260;10.548;2023-09-30T05:47:04;101413.47;;;14.17;100.00
7050;BME280;22263;52.260;10.548;2023-09-30T05:49:35;101404.03;;;14.25;100.00
7050;BME280;22263;52.260;10.548;2023-09-30T05:52:04;101410.56;;;14.07;100.00
7050;BME280;22263;52.260;10.548;2023-09-30T05:54:37;101415.59;;;14.27;100.00
7050;BME280;22263;52.260;10.548;2023-09-30T05:57:07;101403.88;;;14.11;100.00
7050;BME280;22263;52.260;10.548;2023-09-30T05:59:36;101398.63;;;14.39;100.00
7050;BME280;22263;52.260;10.548;2023-09-30T06:02:06;101402.19;;;14.36;100.00
7050;BME280;22263;52.260;10.548;2023-09-30T06:04:36;101409.22;;;14.27;100.00
7050;BME280;22263;52.260;10.548;2023-09-30T06:07:05;101404.16;;;14.36;100.00
7050;BME280;22263;52.260;10.548;2023-09-30T06:09:38;101392.97;;;14.32;100.00
7050;BME280;22263;52.260;10.548;2023-09-30T06:12:08;101399.78;;;14.02;100.00
7050;BME280;22263;52.260;10.548;2023-09-30T06:14:38;101398.13;;;14.30;100.00
7050;BME280;22263;52.260;10.548;2023-09-30T06:17:08;101397.47;;;14.40;100.00
7050;BME280;22263;52.260;10.548;2023-09-30T06:19:38;101413.44;;;14.47;100.00
7050;BME280;22263;52.260;10.548;2023-09-30T06:22:07;101406.31;;;14.53;100.00
7050;BME280;22263;52.260;10.548;2023-09-30T06:24:39;101403.75;;;14.78;100.00
7050;BME280;22263;52.260;10.548;2023-09-30T06:27:09;101421.56;;;14.66;100.00
7050;BME280;22263;52.260;10.548;2023-09-30T06:29:40;101419.13;;;14.61;100.00
7050;BME280;22263;52.260;10.548;2023-09-30T06:32:10;101421.63;;;14.73;100.00
7050;BME280;22263;52.260;10.548;2023-09-30T06:34:40;101427.81;;;14.53;100.00
7050;BME280;22263;52.260;10.548;2023-09-30T06:37:09;101428.09;;;14.84;100.00
7050;BME280;22263;52.260;10.548;2023-09-30T06:39:42;101439.28;;;14.88;100.00
7050;BME280;22263;52.260;10.548;2023-09-30T06:42:12;101450.59;;;14.65;100.00
7050;BME280;22263;52.260;10.548;2023-09-30T06:44:41;101454.94;;;14.63;100.00
7050;BME280;22263;52.260;10.548;2023-09-30T06:47:11;101459.66;;;14.99;100.00
7050;BME280;22263;52.260;10.548;2023-09-30T06:49:41;101456.53;;;15.04;100.00
7050;BME280;22263;52.260;10.548;2023-09-30T06:52:12;101464.34;;;14.92;100.00
7050;BME280;22263;52.260;10.548;2023-09-30T06:54:44;101466.28;;;14.84;100.00
7050;BME280;22263;52.260;10.548;2023-09-30T06:57:14;101464.19;;;15.18;100.00
7050;BME280;22263;52.260;10.548;2023-09-30T06:59:43;101466.19;;;15.21;100.00
7050;BME280;22263;52.260;10.548;2023-09-30T07:02:13;101462.66;;;15.24;100.00
7050;BME280;22263;52.260;10.548;2023-09-30T07:04:43;101466.16;;;15.65;100.00
7050;BME280;22263;52.260;10.548;2023-09-30T07:07:12;101465.84;;;15.81;100.00
7050;BME280;22263;52.260;10.548;2023-09-30T07:09:45;101462.41;;;16.12;100.00
7050;BME280;22263;52.260;10.548;2023-09-30T07:12:14;101456.44;;;16.13;100.00
7050;BME280;22263;52.260;10.548;2023-09-30T07:14:44;101451.69;;;16.25;100.00
7050;BME280;22263;52.260;10.548;2023-09-30T07:17:14;101461.41;;;16.63;100.00
7050;BME280;22263;52.260;10.548;2023-09-30T07:19:44;101453.44;;;17.04;100.00
7050;BME280;22263;52.260;10.548;2023-09-30T07:22:15;101456.28;;;17.07;100.00
7050;BME280;22263;52.260;10.548;2023-09-30T07:25:04;101451.88;;;17.10;100.00
7050;BME280;22263;52.260;10.548;2023-09-30T07:27:34;101451.81;;;17.52;100.00
7050;BME280;22263;52.260;10.548;2023-09-30T07:30:05;101450.63;;;17.46;100.00
7050;BME280;22263;52.260;10.548;2023-09-30T07:32:35;101458.91;;;18.03;100.00
7050;BME280;22263;52.260;10.548;2023-09-30T07:35:06;101454.31;;;18.37;100.00
7050;BME280;22263;52.260;10.548;2023-09-30T07:37:36;101451.81;;;18.64;100.00
7050;BME280;22263;52.260;10.548;2023-09-30T07:40:11;101457.44;;;18.57;100.00
7050;BME280;22263;52.260;10.548;2023-09-30T07:42:41;101460.31;;;19.05;100.00
7050;BME280;22263;52.260;10.548;2023-09-30T07:45:11;101474.53;;;18.77;100.00
7050;BME280;22263;52.260;10.548;2023-09-30T07:47:44;101466.09;;;18.84;100.00
7050;BME280;22263;52.260;10.548;2023-09-30T07:50:14;101465.91;;;19.08;100.00
7050;BME280;22263;52.260;10.548;2023-09-30T07:52:44;101472.84;;;19.38;100.00
7050;BME280;22263;52.260;10.548;2023-09-30T07:55:17;101477.41;;;19.69;100.00
7050;BME280;22263;52.260;10.548;2023-09-30T07:57:46;101479.47;;;19.99;100.00
7050;BME280;22263;52.260;10.548;2023-09-30T08:00:16;101476.44;;;20.51;100.00
7050;BME280;22263;52.260;10.548;2023-09-30T08:02:48;101483.09;;;20.33;100.00
7050;BME280;22263;52.260;10.548;2023-09-30T08:05:18;101485.25;;;20.79;100.00
7050;BME280;22263;52.260;10.548;2023-09-30T08:07:48;101494.50;;;20.50;100.00
7050;BME280;22263;52.260;10.548;2023-09-30T08:10:21;101482.06;;;21.04;100.00
7050;BME280;22263;52.260;10.548;2023-09-30T08:12:50;101486.56;;;20.98;100.00
7050;BME280;22263;52.260;10.548;2023-09-30T08:15:23;101489.59;;;20.57;100.00
7050;BME280;22263;52.260;10.548;2023-09-30T08:17:53;101487.78;;;20.97;100.00
7050;BME280;22263;52.260;10.548;2023-09-30T08:20:23;101489.59;;;20.84;100.00
7050;BME280;22263;52.260;10.548;2023-09-30T08:22:53;101486.75;;;21.14;100.00
7050;BME280;22263;52.260;10.548;2023-09-30T08:25:25;101490.91;;;21.53;100.00
7050;BME280;22263;52.260;10.548;2023-09-30T08:27:55;101486.06;;;22.36;100.00
7050;BME280;22263;52.260;10.548;2023-09-30T08:30:24;101497.03;;;21.48;100.00
7050;BME280;22263;52.260;10.548;2023-09-30T08:32:55;101489.00;;;21.89;100.00
7050;BME280;22263;52.260;10.548;2023-09-30T08:35:25;101495.56;;;21.83;100.00
7050;BME280;22263;52.260;10.548;2023-09-30T08:37:55;101499.56;;;21.85;100.00
7050;BME280;22263;52.260;10.548;2023-09-30T08:40:28;101504.28;;;22.11;100.00
7050;BME280;22263;52.260;10.548;2023-09-30T08:42:58;101491.84;;;22.48;100.00
7050;BME280;22263;52.260;10.548;2023-09-30T08:45:28;101496.81;;;23.13;100.00
7050;BME280;22263;52.260;10.548;2023-09-30T08:47:59;101498.13;;;22.76;100.00
7050;BME280;22263;52.260;10.548;2023-09-30T08:50:32;101491.88;;;23.17;100.00
7050;BME280;22263;52.260;10.548;2023-09-30T08:53:03;101496.25;;;23.82;100.00
7050;BME280;22263;52.260;10.548;2023-09-30T08:55:37;101503.44;;;23.06;100.00
7050;BME280;22263;52.260;10.548;2023-09-30T08:58:08;101499.47;;;23.36;100.00
7050;BME280;22263;52.260;10.548;2023-09-30T09:00:39;101496.44;;;23.75;98.05
7050;BME280;22263;52.260;10.548;2023-09-30T09:03:08;101495.84;;;23.68;99.52
7050;BME280;22263;52.260;10.548;2023-09-30T09:05:38;101498.59;;;24.00;98.78
7050;BME280;22263;52.260;10.548;2023-09-30T09:08:08;101495.56;;;24.36;90.51
7050;BME280;22263;52.260;10.548;2023-09-30T09:10:53;101500.88;;;24.34;91.75
7050;BME280;22263;52.260;10.548;2023-09-30T09:13:23;101497.63;;;24.48;90.59
7050;BME280;22263;52.260;10.548;2023-09-30T09:16:06;101497.72;;;25.46;82.66
7050;BME280;22263;52.260;10.548;2023-09-30T09:18:37;101506.72;;;25.79;79.03
7050;BME280;22263;52.260;10.548;2023-09-30T09:21:11;101503.63;;;25.86;75.47
7050;BME280;22263;52.260;10.548;2023-09-30T09:23:43;101508.66;;;26.03;73.94
7050;BME280;22263;52.260;10.548;2023-09-30T09:26:23;101510.28;;;26.26;73.37
7050;BME280;22263;52.260;10.548;2023-09-30T09:28:56;101516.03;;;25.79;75.46
7050;BME280;22263;52.260;10.548;2023-09-30T09:31:28;101513.84;;;26.70;71.76
7050;BME280;22263;52.260;10.548;2023-09-30T09:33:59;101514.66;;;26.49;70.38
7050;BME280;22263;52.260;10.548;2023-09-30T09:36:39;101519.72;;;25.29;77.55
7050;BME280;22263;52.260;10.548;2023-09-30T09:39:10;101521.53;;;25.36;80.16
7050;BME280;22263;52.260;10.548;2023-09-30T09:41:53;101517.72;;;24.09;86.19
7050;BME280;22263;52.260;10.548;2023-09-30T09:44:24;101515.38;;;24.36;85.20
7050;BME280;22263;52.260;10.548;2023-09-30T09:46:57;101516.66;;;24.60;81.33
7050;BME280;22263;52.260;10.548;2023-09-30T09:49:27;101512.72;;;24.00;84.47
7050;BME280;22263;52.260;10.548;2023-09-30T09:51:58;101510.97;;;23.45;91.74
7050;BME280;22263;52.260;10.548;2023-09-30T09:54:31;101509.69;;;22.97;97.97
7050;BME280;22263;52.260;10.548;2023-09-30T09:57:05;101513.56;;;23.03;98.98
7050;BME280;22263;52.260;10.548;2023-09-30T09:59:38;101497.97;;;23.31;98.24
7050;BME280;22263;52.260;10.548;2023-09-30T10:02:11;101501.28;;;23.75;93.33
7050;BME280;22263;52.260;10.548;2023-09-30T10:04:41;101504.50;;;24.06;87.00
7050;BME280;22263;52.260;10.548;2023-09-30T10:07:15;101505.91;;;23.04;96.70
7050;BME280;22263;52.260;10.548;2023-09-30T10:09:51;101512.72;;;23.39;95.61
7050;BME280;22263;52.260;10.548;2023-09-30T10:12:25;101508.94;;;23.29;98.02
7050;BME280;22263;52.260;10.548;2023-09-30T10:14:55;101493.19;;;23.77;90.52
7050;BME280;22263;52.260;10.548;2023-09-30T10:20:27;101496.97;;;24.69;82.11
7050;BME280;22263;52.260;10.548;2023-09-30T10:23:22;101502.16;;;24.58;81.24
7050;BME280;22263;52.260;10.548;2023-09-30T10:25:54;101510.13;;;23.12;97.24
7050;BME280;22263;52.260;10.548;2023-09-30T10:28:36;101502.59;;;23.86;89.81
7050;BME280;22263;52.260;10.548;2023-09-30T10:31:14;101499.91;;;25.04;78.73
7050;BME280;22263;52.260;10.548;2023-09-30T10:36:46;101501.72;;;25.36;68.58
7050;BME280;22263;52.260;10.548;2023-09-30T10:42:48;101504.19;;;24.70;69.46
7050;BME280;22263;52.260;10.548;2023-09-30T10:45:48;101505.03;;;24.96;80.36
7050;BME280;22263;52.260;10.548;2023-09-30T10:48:38;101504.63;;;25.45;72.42
7050;BME280;22263;52.260;10.548;2023-09-30T10:51:16;101503.88;;;25.79;65.78
7050;BME280;22263;52.260;10.548;2023-09-30T10:53:49;101504.03;;;26.19;65.30
7050;BME280;22263;52.260;10.548;2023-09-30T10:56:24;101485.16;;;26.77;66.26
7050;BME280;22263;52.260;10.548;2023-09-30T10:58:54;101493.13;;;26.92;57.95
7050;BME280;22263;52.260;10.548;2023-09-30T11:01:32;101496.16;;;26.35;57.40
7050;BME280;22263;52.260;10.548;2023-09-30T11:04:03;101508.13;;;26.18;60.29
7050;BME280;22263;52.260;10.548;2023-09-30T11:06:39;101507.88;;;26.03;59.56
7050;BME280;22263;52.260;10.548;2023-09-30T11:09:15;101495.34;;;26.13;65.94
7050;BME280;22263;52.260;10.548;2023-09-30T11:11:47;101488.88;;;26.13;60.01
7050;BME280;22263;52.260;10.548;2023-09-30T11:14:20;101500.09;;;26.16;59.65
7050;BME280;22263;52.260;10.548;2023-09-30T11:16:58;101483.63;;;25.68;58.23
7050;BME280;22263;52.260;10.548;2023-09-30T11:19:35;101478.69;;;26.77;55.60
7050;BME280;22263;52.260;10.548;2023-09-30T11:22:06;101481.97;;;26.66;54.34
7050;BME280;22263;52.260;10.548;2023-09-30T11:24:35;101483.59;;;26.02;57.56
7050;BME280;22263;52.260;10.548;2023-09-30T11:27:05;101490.16;;;25.77;57.08
7050;BME280;22263;52.260;10.548;2023-09-30T11:29:35;101494.56;;;26.13;59.27
7050;BME280;22263;52.260;10.548;2023-09-30T11:32:08;101494.94;;;25.21;54.78
7050;BME280;22263;52.260;10.548;2023-09-30T11:34:39;101493.66;;;25.34;58.04
7050;BME280;22263;52.260;10.548;2023-09-30T11:37:09;101488.41;;;25.58;58.12
7050;BME280;22263;52.260;10.548;2023-09-30T11:39:39;101481.56;;;25.21;59.82
7050;BME280;22263;52.260;10.548;2023-09-30T11:42:15;101479.06;;;25.23;61.21
7050;BME280;22263;52.260;10.548;2023-09-30T11:44:48;101481.22;;;25.32;57.51
7050;BME280;22263;52.260;10.548;2023-09-30T11:47:30;101474.69;;;25.56;62.01
7050;BME280;22263;52.260;10.548;2023-09-30T11:50:02;101467.00;;;25.44;55.83
7050;BME280;22263;52.260;10.548;2023-09-30T11:52:33;101474.16;;;26.05;54.36
7050;BME280;22263;52.260;10.548;2023-09-30T11:55:05;101471.25;;;25.96;52.70
7050;BME280;22263;52.260;10.548;2023-09-30T11:57:35;101467.97;;;25.97;52.64
7050;BME280;22263;52.260;10.548;2023-09-30T12:00:07;101465.28;;;26.37;54.72
7050;BME280;22263;52.260;10.548;2023-09-30T12:02:43;101467.81;;;26.01;56.97
7050;BME280;22263;52.260;10.548;2023-09-30T12:05:13;101466.44;;;25.49;58.94
7050;BME280;22263;52.260;10.548;2023-09-30T12:07:43;101461.22;;;25.48;63.54
7050;BME280;22263;52.260;10.548;2023-09-30T12:10:14;101467.97;;;24.65;63.63
7050;BME280;22263;52.260;10.548;2023-09-30T12:12:43;101474.69;;;24.97;72.80
7050;BME280;22263;52.260;10.548;2023-09-30T12:15:13;101476.19;;;25.48;62.36
7050;BME280;22263;52.260;10.548;2023-09-30T12:17:46;101466.94;;;26.57;58.20
7050;BME280;22263;52.260;10.548;2023-09-30T12:20:16;101461.81;;;26.73;53.91
7050;BME280;22263;52.260;10.548;2023-09-30T12:22:46;101455.53;;;26.78;52.97
7050;BME280;22263;52.260;10.548;2023-09-30T12:25:15;101455.63;;;27.06;53.62
7050;BME280;22263;52.260;10.548;2023-09-30T12:27:48;101460.84;;;27.07;51.80
7050;BME280;22263;52.260;10.548;2023-09-30T12:30:22;101464.81;;;26.70;50.97
7050;BME280;22263;52.260;10.548;2023-09-30T12:32:56;101472.25;;;26.02;59.01
7050;BME280;22263;52.260;10.548;2023-09-30T12:35:26;101462.06;;;25.36;55.69
7050;BME280;22263;52.260;10.548;2023-09-30T12:37:56;101465.81;;;25.67;56.88
7050;BME280;22263;52.260;10.548;2023-09-30T12:40:25;101457.88;;;25.28;61.55
7050;BME280;22263;52.260;10.548;2023-09-30T12:42:56;101455.66;;;25.57;57.81
7050;BME280;22263;52.260;10.548;2023-09-30T12:45:29;101446.00;;;26.11;53.05
7050;BME280;22263;52.260;10.548;2023-09-30T12:48:01;101450.34;;;26.46;49.11
7050;BME280;22263;52.260;10.548;2023-09-30T12:50:33;101439.22;;;26.61;51.40
7050;BME280;22263;52.260;10.548;2023-09-30T12:53:03;101441.50;;;26.84;51.30
7050;BME280;22263;52.260;10.548;2023-09-30T12:55:33;101431.81;;;27.03;47.87
7050;BME280;22263;52.260;10.548;2023-09-30T12:58:03;101438.03;;;27.38;45.61
7050;BME280;22263;52.260;10.548;2023-09-30T13:00:38;101439.22;;;27.01;43.53
7050;BME280;22263;52.260;10.548;2023-09-30T13:03:21;101430.59;;;27.41;44.51
7050;BME280;22263;52.260;10.548;2023-09-30T13:05:50;101433.16;;;27.75;43.62
7050;BME280;22263;52.260;10.548;2023-09-30T13:08:21;101432.06;;;27.82;40.42
7050;BME280;22263;52.260;10.548;2023-09-30T13:10:50;101439.00;;;26.86;41.09
7050;BME280;22263;52.260;10.548;2023-09-30T13:13:20;101434.50;;;26.67;41.91